createdAt,value
2019-04-22T00:00:04.712Z,46.87
2019-04-22T00:02:49.036Z,46.69
2019-04-22T00:05:36.504Z,47.23
2019-04-22T00:08:18.134Z,46.28
2019-04-22T00:11:01.419Z,46.65
2019-04-22T00:13:32.238Z,46.58
2019-04-22T00:15:59.328Z,46.81
2019-04-22T00:18:42.889Z,47.04
2019-04-22T00:21:12.751Z,47.54
2019-04-22T00:23:49.702Z,47.82
2019-04-22T00:26:26.075Z,48.17
2019-04-22T00:29:03.677Z,48.31
2019-04-22T00:31:49.536Z,48.59
2019-04-22T00:34:16.645Z,49.32
2019-04-22T00:36:55.577Z,49.73
2019-04-22T00:39:37.151Z,49.65
2019-04-22T00:42:03.265Z,49.51
2019-04-22T00:44:39.917Z,49.82
2019-04-22T00:47:17.701Z,50.27
2019-04-22T00:52:16.723Z,50.16
2019-04-22T00:54:55.160Z,50.39
2019-04-22T00:57:21.645Z,50.43
2019-04-22T00:59:57.256Z,50.05
2019-04-22T01:02:38.986Z,49.28
2019-04-22T01:05:10.449Z,49.09
2019-04-22T01:07:38.330Z,49.12
2019-04-22T01:10:11.671Z,49.12
2019-04-22T01:12:46.731Z,49.60
2019-04-22T01:15:23.746Z,49.62
2019-04-22T01:17:52.553Z,49.49
2019-04-22T01:20:45.679Z,49.36
2019-04-22T01:22:58.949Z,49.54
2019-04-22T01:25:34.884Z,49.12
2019-04-22T01:27:58.428Z,49.39
2019-04-22T01:30:26.460Z,49.83
2019-04-22T01:32:54.210Z,50.03
2019-04-22T01:35:35.853Z,50.00
2019-04-22T01:38:13.386Z,49.97
2019-04-22T01:41:04.549Z,49.87
2019-04-22T01:43:35.029Z,50.33
2019-04-22T01:46:12.683Z,50.29
2019-04-22T01:48:44.465Z,50.30
2019-04-22T01:51:07.630Z,50.35
2019-04-22T01:53:56.574Z,50.42
2019-04-22T01:56:20.580Z,51.07
2019-04-22T01:58:50.424Z,51.20
2019-04-22T02:01:30.759Z,50.68
2019-04-22T02:04:08.866Z,50.68
2019-04-22T02:06:44.423Z,51.19
2019-04-22T02:09:17.741Z,52.13
2019-04-22T02:11:54.973Z,51.38
2019-04-22T02:14:31.590Z,51.38
2019-04-22T02:17:02.331Z,52.25
2019-04-22T02:19:37.687Z,52.75
2019-04-22T02:22:11.607Z,53.47
2019-04-22T02:24:46.724Z,52.73
2019-04-22T02:27:17.761Z,52.72
2019-04-22T02:29:50.356Z,52.90
2019-04-22T02:32:39.238Z,53.19
2019-04-22T02:35:05.130Z,53.58
2019-04-22T02:38:04.968Z,54.04
2019-04-22T02:40:14.548Z,53.86
2019-04-22T02:42:51.832Z,54.02
2019-04-22T02:45:26.592Z,54.55
2019-04-22T02:47:58.542Z,54.77
2019-04-22T02:50:28.559Z,55.44
2019-04-22T02:53:01.930Z,55.93
2019-04-22T02:55:40.910Z,56.02
2019-04-22T02:58:21.844Z,55.71
2019-04-22T03:03:31.277Z,56.38
2019-04-22T03:06:07.555Z,56.59
2019-04-22T03:08:30.156Z,56.81
2019-04-22T03:11:19.147Z,57.19
2019-04-22T03:16:17.496Z,57.47
2019-04-22T03:26:27.413Z,57.83
2019-04-22T03:39:45.482Z,58.21
2019-04-22T03:44:49.634Z,57.36
2019-04-22T03:47:26.059Z,57.26
2019-04-22T03:49:58.936Z,57.26
2019-04-22T03:52:20.701Z,57.49
2019-04-22T03:57:40.589Z,57.13
2019-04-22T04:05:10.472Z,56.90
2019-04-22T04:07:48.458Z,56.92
2019-04-22T04:20:37.247Z,57.10
2019-04-22T04:25:42.498Z,57.30
2019-04-22T04:28:47.236Z,57.15
2019-04-22T04:30:42.911Z,57.41
2019-04-22T04:38:34.129Z,57.22
2019-04-22T04:40:58.561Z,57.16
2019-04-22T04:43:59.797Z,57.27
2019-04-22T04:53:41.780Z,57.20
2019-04-22T05:01:35.181Z,57.51
2019-04-22T05:09:15.076Z,56.82
2019-04-22T05:16:47.948Z,56.75
2019-04-22T05:19:22.569Z,57.21
2019-04-22T05:21:53.385Z,57.23
2019-04-22T05:24:22.721Z,57.13
2019-04-22T05:26:57.060Z,57.26
2019-04-22T05:32:04.315Z,57.55
2019-04-22T05:34:34.622Z,57.83
2019-04-22T05:37:10.831Z,58.01
2019-04-22T05:39:38.089Z,58.06
2019-04-22T05:42:16.338Z,57.96
2019-04-22T05:44:49.608Z,58.09
2019-04-22T05:47:22.493Z,58.34
2019-04-22T05:49:47.873Z,57.87
2019-04-22T05:52:25.221Z,57.77
2019-04-22T05:55:02.473Z,57.39
2019-04-22T05:57:33.035Z,57.30
2019-04-22T06:00:06.385Z,56.78
2019-04-22T06:05:32.035Z,55.85
2019-04-22T06:07:49.071Z,55.15
2019-04-22T06:10:34.446Z,55.51
2019-04-22T06:12:56.319Z,55.41
2019-04-22T06:15:36.124Z,54.66
2019-04-22T06:18:18.857Z,54.11
2019-04-22T06:21:00.544Z,53.93
2019-04-22T06:26:09.764Z,53.36
2019-04-22T06:31:10.711Z,52.33
2019-04-22T06:33:41.586Z,52.13
2019-04-22T06:36:15.839Z,51.97
2019-04-22T06:39:00.982Z,50.69
2019-04-22T06:41:24.836Z,51.17
2019-04-22T06:43:58.629Z,51.23
2019-04-22T06:46:27.193Z,50.85
2019-04-22T06:49:03.625Z,51.24
2019-04-22T06:51:33.078Z,51.89
2019-04-22T06:54:07.272Z,50.81
2019-04-22T06:56:43.118Z,50.25
2019-04-22T06:59:14.328Z,49.89
2019-04-22T07:01:55.138Z,50.75
2019-04-22T07:04:17.131Z,50.61
2019-04-22T07:06:56.827Z,50.58
2019-04-22T07:11:59.708Z,48.77
2019-04-22T07:14:35.125Z,48.97
2019-04-22T07:17:10.217Z,49.14
2019-04-22T07:19:45.009Z,49.41
2019-04-22T07:22:18.143Z,49.51
2019-04-22T07:27:22.152Z,49.20
2019-04-22T07:30:01.926Z,49.06
2019-04-22T07:32:53.533Z,49.16
2019-04-22T07:35:08.342Z,49.05
2019-04-22T07:40:09.517Z,48.02
2019-04-22T07:42:45.145Z,47.00
2019-04-22T07:45:20.284Z,47.13
2019-04-22T07:47:58.936Z,46.41
2019-04-22T07:50:39.311Z,45.32
2019-04-22T07:52:58.884Z,44.07
2019-04-22T07:55:32.610Z,43.89
2019-04-22T07:58:11.899Z,44.77
2019-04-22T08:00:50.567Z,42.96
2019-04-22T08:03:24.509Z,41.13
2019-04-22T08:05:58.555Z,41.90
2019-04-22T08:10:57.953Z,40.69
2019-04-22T08:13:31.504Z,40.29
2019-04-22T08:16:02.787Z,40.61
2019-04-22T08:18:39.157Z,39.84
2019-04-22T08:21:12.275Z,38.84
2019-04-22T08:23:44.729Z,39.99
2019-04-22T08:26:16.761Z,38.61
2019-04-22T08:28:55.819Z,38.90
2019-04-22T08:31:20.441Z,38.92
2019-04-22T08:33:54.553Z,38.97
2019-04-22T08:36:56.965Z,39.38
2019-04-22T08:39:00.855Z,39.49
2019-04-22T08:44:07.659Z,39.67
2019-04-22T08:49:28.729Z,40.11
2019-04-22T08:52:01.438Z,39.49
2019-04-22T08:54:34.108Z,39.05
2019-04-22T08:59:37.189Z,39.15
2019-04-22T09:02:20.502Z,39.03
2019-04-22T09:04:49.451Z,39.45
2019-04-22T09:07:28.368Z,38.88
2019-04-22T09:09:56.927Z,39.64
2019-04-22T09:12:46.954Z,39.51
2019-04-22T09:15:08.602Z,39.58
2019-04-22T09:17:40.286Z,40.52
2019-04-22T09:20:13.083Z,39.78
2019-04-22T09:22:47.080Z,39.22
2019-04-22T09:25:44.081Z,38.98
2019-04-22T09:28:17.561Z,39.32
2019-04-22T09:30:55.619Z,39.76
2019-04-22T09:33:20.631Z,39.81
2019-04-22T09:41:00.695Z,40.40
2019-04-22T09:43:45.467Z,40.58
2019-04-22T09:46:08.990Z,41.14
2019-04-22T09:48:43.565Z,41.30
2019-04-22T09:51:13.499Z,41.07
2019-04-22T09:53:54.757Z,41.05
2019-04-22T09:56:26.061Z,41.23
2019-04-22T09:58:55.616Z,41.78
2019-04-22T10:01:34.091Z,41.53
2019-04-22T10:04:18.203Z,41.29
2019-04-22T10:06:39.447Z,41.90
2019-04-22T10:09:45.181Z,41.50
2019-04-22T10:11:47.691Z,41.16
2019-04-22T10:14:19.114Z,40.87
2019-04-22T10:16:53.816Z,40.51
2019-04-22T10:19:30.024Z,41.05
2019-04-22T10:24:36.907Z,40.63
2019-04-22T10:27:05.986Z,40.65
2019-04-22T10:29:47.382Z,41.23
2019-04-22T10:32:11.296Z,40.25
2019-04-22T10:34:38.800Z,40.65
2019-04-22T10:37:06.403Z,40.29
2019-04-22T10:39:45.851Z,41.35
2019-04-22T10:42:11.360Z,42.01
2019-04-22T10:44:44.777Z,42.65
2019-04-22T10:47:18.077Z,41.49
2019-04-22T10:49:49.678Z,41.41
2019-04-22T10:52:21.696Z,40.87
2019-04-22T10:54:54.005Z,41.09
2019-04-22T10:57:27.583Z,41.24
2019-04-22T11:00:00.708Z,40.19
2019-04-22T11:02:35.125Z,40.95
2019-04-22T11:05:10.240Z,40.21
2019-04-22T11:07:51.420Z,40.95
2019-04-22T11:10:35.386Z,40.92
2019-04-22T11:12:54.689Z,41.88
2019-04-22T11:15:28.574Z,40.93
2019-04-22T11:18:03.440Z,41.25
2019-04-22T11:20:39.880Z,40.62
2019-04-22T11:23:11.651Z,41.07
2019-04-22T11:25:43.916Z,40.99
2019-04-22T11:28:15.981Z,41.01
2019-04-22T11:30:48.236Z,40.52
2019-04-22T11:33:20.627Z,40.40
2019-04-22T11:35:52.170Z,40.28
2019-04-22T11:38:31.301Z,39.66
2019-04-22T11:41:05.302Z,39.61
2019-04-22T11:43:38.859Z,39.46
2019-04-22T11:46:13.345Z,39.05
2019-04-22T11:48:49.943Z,39.78
2019-04-22T11:51:24.357Z,39.36
2019-04-22T11:53:58.681Z,39.33
2019-04-22T11:56:31.303Z,39.04
2019-04-22T11:59:04.892Z,38.71
2019-04-22T12:01:37.194Z,39.21
2019-04-22T12:04:09.701Z,39.24
2019-04-22T12:06:41.942Z,39.75
2019-04-22T12:09:15.469Z,39.06
2019-04-22T12:11:47.571Z,38.92
2019-04-22T12:14:20.429Z,38.93
2019-04-22T12:16:55.323Z,39.45
2019-04-22T12:19:29.458Z,38.36
2019-04-22T12:22:02.904Z,37.88
2019-04-22T12:25:10.554Z,37.56
2019-04-22T12:27:22.846Z,37.47
2019-04-22T12:29:56.613Z,36.31
2019-04-22T12:32:29.702Z,37.04
2019-04-22T12:35:01.833Z,37.40
2019-04-22T12:37:43.577Z,37.99
2019-04-22T12:40:30.147Z,38.15
2019-04-22T12:43:04.652Z,37.49
2019-04-22T12:45:42.510Z,37.23
2019-04-22T12:48:17.186Z,36.31
2019-04-22T12:50:58.721Z,36.50
2019-04-22T12:53:30.001Z,37.29
2019-04-22T12:56:05.054Z,37.08
2019-04-22T12:58:41.221Z,37.00
2019-04-22T13:01:14.934Z,36.88
2019-04-22T13:03:50.144Z,36.46
2019-04-22T13:06:23.632Z,36.42
2019-04-22T13:08:56.574Z,35.63
2019-04-22T13:11:40.735Z,35.40
2019-04-22T13:14:14.944Z,36.03
2019-04-22T13:16:47.260Z,36.25
2019-04-22T13:19:21.089Z,36.30
2019-04-22T13:21:54.606Z,36.32
2019-04-22T13:24:34.052Z,35.57
2019-04-22T13:27:06.758Z,34.90
2019-04-22T13:29:41.210Z,34.27
2019-04-22T13:32:13.900Z,33.99
2019-04-22T13:34:51.905Z,34.37
2019-04-22T13:37:20.966Z,34.88
2019-04-22T13:39:52.896Z,34.85
2019-04-22T13:42:27.550Z,34.72
2019-04-22T13:45:00.234Z,34.56
2019-04-22T13:47:49.129Z,35.32
2019-04-22T13:50:48.166Z,35.02
2019-04-22T13:53:24.515Z,35.67
2019-04-22T13:58:05.830Z,34.48
2019-04-22T14:00:26.917Z,34.86
2019-04-22T14:03:29.008Z,35.07
2019-04-22T14:06:02.675Z,34.20
2019-04-22T14:08:35.333Z,34.40
2019-04-22T14:11:18.042Z,34.33
2019-04-22T14:13:41.965Z,33.85
2019-04-22T14:16:15.136Z,34.20
2019-04-22T14:18:47.753Z,34.21
2019-04-22T14:21:21.065Z,34.71
2019-04-22T14:23:53.373Z,35.02
2019-04-22T14:26:25.174Z,35.01
2019-04-22T14:29:00.199Z,35.52
2019-04-22T14:31:32.873Z,35.90
2019-04-22T14:34:15.224Z,34.88
2019-04-22T14:36:51.205Z,34.77
2019-04-22T14:39:26.028Z,34.48
2019-04-22T14:42:15.771Z,34.15
2019-04-22T14:47:25.744Z,34.53
2019-04-22T14:49:59.003Z,34.05
2019-04-22T14:52:33.195Z,34.76
2019-04-22T14:54:54.308Z,35.08
2019-04-22T14:57:19.251Z,35.16
2019-04-22T14:59:50.580Z,35.42
2019-04-22T15:02:43.816Z,35.02
2019-04-22T15:05:06.054Z,35.41
2019-04-22T15:07:41.287Z,35.47
2019-04-22T15:10:18.163Z,35.55
2019-04-22T15:13:00.376Z,35.59
2019-04-22T15:16:14.003Z,35.80
2019-04-22T15:19:43.696Z,35.77
2019-04-22T15:22:15.109Z,35.99
2019-04-22T15:24:47.776Z,36.32
2019-04-22T15:27:20.332Z,36.55
2019-04-22T15:29:53.761Z,36.42
2019-04-22T15:32:25.401Z,35.86
2019-04-22T15:34:59.468Z,35.78
2019-04-22T15:37:31.140Z,36.36
2019-04-22T15:40:04.918Z,36.59
2019-04-22T15:42:41.126Z,36.63
2019-04-22T15:45:13.708Z,36.99
2019-04-22T15:48:14.720Z,36.53
2019-04-22T15:50:48.876Z,36.40
2019-04-22T15:53:22.083Z,36.02
2019-04-22T15:55:54.664Z,35.94
2019-04-22T15:58:30.174Z,35.83
2019-04-22T16:01:12.967Z,35.85
2019-04-22T16:03:40.806Z,36.24
2019-04-22T16:06:13.303Z,37.24
2019-04-22T16:08:47.889Z,37.73
2019-04-22T16:11:22.297Z,38.24
2019-04-22T16:13:54.734Z,38.76
2019-04-22T16:16:30.342Z,39.02
2019-04-22T16:19:04.458Z,38.93
2019-04-22T16:21:42.417Z,38.92
2019-04-22T16:24:36.084Z,38.71
2019-04-22T16:27:16.214Z,38.83
2019-04-22T16:29:51.977Z,39.58
2019-04-22T16:32:25.499Z,40.05
2019-04-22T16:34:57.083Z,40.33
2019-04-22T16:37:28.635Z,40.34
2019-04-22T16:40:00.926Z,40.76
2019-04-22T16:42:41.016Z,41.04
2019-04-22T16:45:07.791Z,41.09
2019-04-22T16:47:39.667Z,41.08
2019-04-22T16:50:11.272Z,41.37
2019-04-22T16:52:43.950Z,41.32
2019-04-22T16:55:16.935Z,41.51
2019-04-22T16:57:49.046Z,41.54
2019-04-22T17:00:20.673Z,41.35
2019-04-22T17:03:20.851Z,41.62
2019-04-22T17:06:17.376Z,41.50
2019-04-22T17:08:50.905Z,41.31
2019-04-22T17:11:23.035Z,41.60
2019-04-22T17:13:55.154Z,41.66
2019-04-22T17:16:30.599Z,42.01
2019-04-22T17:19:06.139Z,42.21
2019-04-22T17:21:39.632Z,42.90
2019-04-22T17:24:13.998Z,43.25
2019-04-22T17:26:46.462Z,43.47
2019-04-22T17:29:18.796Z,44.00
2019-04-22T17:32:01.679Z,44.34
2019-04-22T17:37:46.867Z,44.49
2019-04-22T17:38:26.269Z,44.69
2019-04-22T17:41:01.004Z,45.22
2019-04-22T17:43:51.822Z,45.57
2019-04-22T17:46:40.372Z,45.86
2019-04-22T17:49:54.068Z,46.13
2019-04-22T17:53:03.146Z,46.76
2019-04-22T17:55:31.633Z,46.54
2019-04-22T17:58:07.940Z,46.89
2019-04-22T18:00:32.275Z,47.29
2019-04-22T18:03:03.236Z,48.23
2019-04-22T18:05:34.644Z,48.51
2019-04-22T18:08:17.011Z,48.14
2019-04-22T18:10:49.209Z,48.49
2019-04-22T18:13:33.477Z,48.29
2019-04-22T18:16:04.134Z,48.70
2019-04-22T18:18:37.406Z,48.51
2019-04-22T18:21:02.152Z,49.01
2019-04-22T18:23:54.007Z,49.44
2019-04-22T18:26:35.982Z,49.21
2019-04-22T18:29:11.265Z,49.85
2019-04-22T18:31:35.584Z,50.63
2019-04-22T18:34:09.794Z,50.79
2019-04-22T18:36:45.665Z,50.81
2019-04-22T18:39:29.916Z,50.88
2019-04-22T18:42:04.810Z,50.91
2019-04-22T18:44:39.981Z,51.69
2019-04-22T18:47:14.616Z,51.72
2019-04-22T18:49:55.468Z,51.81
2019-04-22T18:52:58.580Z,52.18
2019-04-22T18:55:33.624Z,52.71
2019-04-22T18:58:11.680Z,53.03
2019-04-22T19:00:34.295Z,52.79
2019-04-22T19:03:15.596Z,52.73
2019-04-22T19:06:03.523Z,52.93
2019-04-22T19:08:36.645Z,53.37
2019-04-22T19:11:12.569Z,52.80
2019-04-22T19:16:30.866Z,53.87
2019-04-22T19:19:21.238Z,54.54
2019-04-22T19:21:35.521Z,54.94
2019-04-22T19:24:06.077Z,54.46
2019-04-22T19:26:50.520Z,55.29
2019-04-22T19:29:22.007Z,54.86
2019-04-22T19:31:51.192Z,55.34
2019-04-22T19:34:20.899Z,56.07
2019-04-22T19:36:58.064Z,56.82
2019-04-22T19:39:31.017Z,56.98
2019-04-22T19:42:16.994Z,56.91
2019-04-22T19:44:46.347Z,57.16
2019-04-22T19:49:57.999Z,57.32
2019-04-22T19:52:28.730Z,57.87
2019-04-22T19:55:03.304Z,57.92
2019-04-22T19:57:34.212Z,57.90
2019-04-22T20:00:05.120Z,57.51
2019-04-22T20:03:18.554Z,57.57
2019-04-22T20:06:01.375Z,57.63
2019-04-22T20:08:31.659Z,58.22
2019-04-22T20:11:13.184Z,58.62
2019-04-22T20:13:46.351Z,58.82
2019-04-22T20:16:03.518Z,58.95
2019-04-22T20:18:52.348Z,58.22
2019-04-22T20:21:22.644Z,58.10
2019-04-22T20:23:45.397Z,58.38
2019-04-22T20:26:17.855Z,57.89
2019-04-22T20:28:58.980Z,58.45
2019-04-22T20:31:33.954Z,57.03
2019-04-22T20:34:09.118Z,56.77
2019-04-22T20:39:07.842Z,56.91
2019-04-22T20:41:41.090Z,57.42
2019-04-22T20:44:22.682Z,57.28
2019-04-22T20:46:49.120Z,58.12
2019-04-22T20:49:33.770Z,58.14
2019-04-22T20:54:39.030Z,57.47
2019-04-22T20:57:01.809Z,57.20
2019-04-22T20:59:42.904Z,56.97
2019-04-22T21:02:07.988Z,57.21
2019-04-22T21:04:38.204Z,57.18
2019-04-22T21:07:14.052Z,57.15
2019-04-22T21:09:49.236Z,57.48
2019-04-22T21:12:21.156Z,58.67
2019-04-22T21:15:10.556Z,58.89
2019-04-22T21:17:37.664Z,59.19
2019-04-22T21:20:13.979Z,59.73
2019-04-22T21:22:42.045Z,59.61
2019-04-22T21:25:11.621Z,60.01
2019-04-22T21:27:51.041Z,59.10
2019-04-22T21:30:19.498Z,59.01
2019-04-22T21:32:56.300Z,58.72
2019-04-22T21:35:40.492Z,59.10
2019-04-22T21:38:04.541Z,59.03
2019-04-22T21:40:34.246Z,59.31
2019-04-22T21:43:12.727Z,59.88
2019-04-22T21:45:37.667Z,60.32
2019-04-22T21:48:28.073Z,60.39
2019-04-22T21:50:57.464Z,59.33
2019-04-22T21:53:31.490Z,58.46
2019-04-22T21:56:11.688Z,59.18
2019-04-22T21:58:53.255Z,58.28
2019-04-22T22:01:49.795Z,58.81
2019-04-22T22:04:15.279Z,59.32
2019-04-22T22:06:39.668Z,59.50
2019-04-22T22:09:22.425Z,60.31
2019-04-22T22:11:52.865Z,60.36
2019-04-22T22:14:22.410Z,60.46
2019-04-22T22:16:53.380Z,61.04
2019-04-22T22:19:35.957Z,61.38
2019-04-22T22:22:25.158Z,60.18
2019-04-22T22:24:46.433Z,60.22
2019-04-22T22:27:14.507Z,60.61
2019-04-22T22:29:57.097Z,61.16
2019-04-22T22:32:26.078Z,60.03
2019-04-22T22:34:57.287Z,59.86
2019-04-22T22:37:17.013Z,60.00
2019-04-22T22:39:51.323Z,59.61
2019-04-22T22:42:22.430Z,58.47
2019-04-22T22:44:54.557Z,58.38
2019-04-22T22:47:42.254Z,58.35
2019-04-22T22:50:15.920Z,58.65
2019-04-22T22:55:22.004Z,58.31
2019-04-22T22:57:58.239Z,57.35
2019-04-22T23:00:24.372Z,57.15
2019-04-22T23:03:36.821Z,56.87
2019-04-22T23:05:45.574Z,56.70
2019-04-22T23:08:17.500Z,56.84
2019-04-22T23:10:55.598Z,57.57
2019-04-22T23:13:25.842Z,56.55
2019-04-22T23:15:44.313Z,57.08
2019-04-22T23:18:05.995Z,56.65
2019-04-22T23:20:43.289Z,57.29
2019-04-22T23:23:36.002Z,56.50
2019-04-22T23:26:19.241Z,56.57
2019-04-22T23:28:55.638Z,55.60
2019-04-22T23:31:44.142Z,55.64
2019-04-22T23:34:26.496Z,56.14
2019-04-22T23:37:21.780Z,57.01
2019-04-22T23:40:13.116Z,57.42
2019-04-22T23:42:36.587Z,57.08
2019-04-22T23:45:10.811Z,57.34
2019-04-22T23:47:35.559Z,57.71
2019-04-22T23:50:21.196Z,57.25
2019-04-22T23:52:59.447Z,56.55
2019-04-22T23:55:33.818Z,56.33
2019-04-22T23:58:11.111Z,56.46
